createdAt,value
2022-09-17T00:01:31.474Z,100.00
2022-09-17T00:04:04.738Z,100.00
2022-09-17T00:06:36.465Z,100.00
2022-09-17T00:09:05.915Z,100.00
2022-09-17T00:11:36.475Z,100.00
2022-09-17T00:14:07.140Z,100.00
2022-09-17T00:16:37.770Z,100.00
2022-09-17T00:19:08.308Z,100.00
2022-09-17T00:21:38.171Z,100.00
2022-09-17T00:24:07.667Z,100.00
2022-09-17T00:26:36.826Z,100.00
2022-09-17T00:29:05.817Z,100.00
2022-09-17T00:31:34.554Z,100.00
2022-09-17T00:34:04.008Z,100.00
2022-09-17T00:36:32.237Z,100.00
2022-09-17T00:39:01.966Z,100.00
2022-09-17T00:41:32.089Z,100.00
2022-09-17T00:44:01.636Z,100.00
2022-09-17T00:46:33.687Z,100.00
2022-09-17T00:49:03.381Z,100.00
2022-09-17T00:51:38.798Z,100.00
2022-09-17T00:54:11.764Z,100.00
2022-09-17T00:56:41.744Z,100.00
2022-09-17T00:59:10.005Z,100.00
2022-09-17T01:01:39.062Z,100.00
2022-09-17T01:04:07.404Z,100.00
2022-09-17T01:06:38.769Z,100.00
2022-09-17T01:09:18.745Z,100.00
2022-09-17T01:12:04.216Z,100.00
2022-09-17T01:14:44.004Z,100.00
2022-09-17T01:17:18.513Z,100.00
2022-09-17T01:20:16.678Z,100.00
2022-09-17T01:22:55.437Z,100.00
2022-09-17T01:25:26.280Z,100.00
2022-09-17T01:28:14.802Z,100.00
2022-09-17T01:31:22.369Z,100.00
2022-09-17T01:33:57.840Z,100.00
2022-09-17T01:36:36.831Z,100.00
2022-09-17T01:39:07.815Z,100.00
2022-09-17T01:41:44.602Z,100.00
2022-09-17T01:44:16.705Z,100.00
2022-09-17T01:46:49.995Z,100.00
2022-09-17T01:49:18.408Z,100.00
2022-09-17T01:51:48.682Z,100.00
2022-09-17T01:54:21.372Z,100.00
2022-09-17T01:56:53.325Z,100.00
2022-09-17T01:59:23.617Z,100.00
2022-09-17T02:01:55.355Z,100.00
2022-09-17T02:04:28.154Z,100.00
2022-09-17T02:07:01.643Z,100.00
2022-09-17T02:09:33.294Z,100.00
2022-09-17T02:12:03.987Z,100.00
2022-09-17T02:14:36.454Z,100.00
2022-09-17T02:17:12.610Z,100.00
2022-09-17T02:19:41.770Z,100.00
2022-09-17T02:22:18.273Z,100.00
2022-09-17T02:24:49.966Z,100.00
2022-09-17T02:27:22.357Z,100.00
2022-09-17T02:29:50.524Z,100.00
2022-09-17T02:32:20.026Z,100.00
2022-09-17T02:34:48.671Z,100.00
2022-09-17T02:37:16.836Z,100.00
2022-09-17T02:39:45.238Z,100.00
2022-09-17T02:42:23.702Z,100.00
2022-09-17T02:45:01.385Z,100.00
2022-09-17T02:48:08.165Z,100.00
2022-09-17T02:51:02.813Z,100.00
2022-09-17T02:53:38.222Z,100.00
2022-09-17T02:56:15.469Z,100.00
2022-09-17T02:58:48.377Z,100.00
2022-09-17T03:01:30.269Z,100.00
2022-09-17T03:04:00.128Z,100.00
2022-09-17T03:06:29.878Z,100.00
2022-09-17T03:08:58.257Z,100.00
2022-09-17T03:11:26.454Z,100.00
2022-09-17T03:13:54.831Z,100.00
2022-09-17T03:16:23.089Z,100.00
2022-09-17T03:18:51.354Z,100.00
2022-09-17T03:21:19.538Z,100.00
2022-09-17T03:23:49.245Z,100.00
2022-09-17T03:26:17.420Z,100.00
2022-09-17T03:28:45.563Z,100.00
2022-09-17T03:31:13.782Z,100.00
2022-09-17T03:33:41.939Z,100.00
2022-09-17T03:36:10.182Z,100.00
2022-09-17T03:38:38.673Z,100.00
2022-09-17T03:41:08.518Z,100.00
2022-09-17T03:43:36.745Z,100.00
2022-09-17T03:46:05.108Z,100.00
2022-09-17T03:48:37.133Z,100.00
2022-09-17T03:51:05.725Z,100.00
2022-09-17T03:53:33.858Z,100.00
2022-09-17T03:56:02.766Z,100.00
2022-09-17T03:58:33.044Z,100.00
2022-09-17T04:01:04.746Z,100.00
2022-09-17T04:03:33.396Z,100.00
2022-09-17T04:06:01.776Z,100.00
2022-09-17T04:08:30.033Z,100.00
2022-09-17T04:10:58.213Z,100.00
2022-09-17T04:13:26.385Z,100.00
2022-09-17T04:15:55.997Z,100.00
2022-09-17T04:18:24.567Z,100.00
2022-09-17T04:20:53.501Z,100.00
2022-09-17T04:23:21.739Z,100.00
2022-09-17T04:25:49.990Z,100.00
2022-09-17T04:28:20.735Z,100.00
2022-09-17T04:30:49.317Z,100.00
2022-09-17T04:33:19.730Z,100.00
2022-09-17T04:35:48.147Z,100.00
2022-09-17T04:38:18.665Z,100.00
2022-09-17T04:40:47.568Z,100.00
2022-09-17T04:43:16.107Z,100.00
2022-09-17T04:45:47.251Z,100.00
2022-09-17T04:48:15.643Z,100.00
2022-09-17T04:50:45.241Z,100.00
2022-09-17T04:53:13.689Z,100.00
2022-09-17T04:55:41.868Z,100.00
2022-09-17T04:58:10.102Z,100.00
2022-09-17T05:00:38.725Z,100.00
2022-09-17T05:03:06.881Z,100.00
2022-09-17T05:05:35.236Z,100.00
2022-09-17T05:08:05.126Z,100.00
2022-09-17T05:10:33.243Z,100.00
2022-09-17T05:13:01.592Z,100.00
2022-09-17T05:15:29.784Z,100.00
2022-09-17T05:17:58.911Z,100.00
2022-09-17T05:20:27.034Z,100.00
2022-09-17T05:22:56.043Z,100.00
2022-09-17T05:25:25.607Z,100.00
2022-09-17T05:27:54.848Z,100.00
2022-09-17T05:30:23.298Z,100.00
2022-09-17T05:33:00.023Z,100.00
2022-09-17T05:35:28.530Z,100.00
2022-09-17T05:38:00.945Z,100.00
2022-09-17T05:40:31.470Z,100.00
2022-09-17T05:43:00.380Z,100.00
2022-09-17T05:45:28.688Z,100.00
2022-09-17T05:47:57.693Z,100.00
2022-09-17T05:50:26.372Z,100.00
2022-09-17T05:52:55.023Z,100.00
2022-09-17T05:55:24.531Z,100.00
2022-09-17T05:57:54.158Z,100.00
2022-09-17T06:00:22.717Z,100.00
2022-09-17T06:02:56.150Z,100.00
2022-09-17T06:05:24.493Z,100.00
2022-09-17T06:07:52.777Z,100.00
2022-09-17T06:10:21.006Z,100.00
2022-09-17T06:12:49.421Z,100.00
2022-09-17T06:15:19.420Z,100.00
2022-09-17T06:17:47.787Z,100.00
2022-09-17T06:20:16.849Z,100.00
2022-09-17T06:22:44.986Z,100.00
2022-09-17T06:25:13.336Z,100.00
2022-09-17T06:27:41.565Z,100.00
2022-09-17T06:30:10.201Z,100.00
2022-09-17T06:32:39.823Z,100.00
2022-09-17T06:35:09.360Z,100.00
2022-09-17T06:37:40.339Z,100.00
2022-09-17T06:40:10.147Z,100.00
2022-09-17T06:42:38.336Z,100.00
2022-09-17T06:45:11.058Z,100.00
2022-09-17T06:47:42.874Z,100.00
2022-09-17T06:50:11.374Z,100.00
2022-09-17T06:52:39.745Z,100.00
2022-09-17T06:55:08.515Z,100.00
2022-09-17T06:57:36.675Z,100.00
2022-09-17T07:00:05.596Z,100.00
2022-09-17T07:02:33.859Z,100.00
2022-09-17T07:05:04.875Z,100.00
2022-09-17T07:07:35.046Z,100.00
2022-09-17T07:10:03.436Z,100.00
2022-09-17T07:12:31.549Z,100.00
2022-09-17T07:14:59.702Z,100.00
2022-09-17T07:17:30.532Z,100.00
2022-09-17T07:19:59.338Z,100.00
2022-09-17T07:22:29.527Z,100.00
2022-09-17T07:24:57.866Z,100.00
2022-09-17T07:27:28.706Z,100.00
2022-09-17T07:29:57.132Z,100.00
2022-09-17T07:32:25.764Z,100.00
2022-09-17T07:34:53.978Z,100.00
2022-09-17T07:37:22.959Z,100.00
2022-09-17T07:39:52.794Z,100.00
2022-09-17T07:42:21.349Z,100.00
2022-09-17T07:44:49.946Z,100.00
2022-09-17T07:47:18.182Z,100.00
2022-09-17T07:49:46.630Z,100.00
2022-09-17T07:52:15.160Z,100.00
2022-09-17T07:54:44.195Z,100.00
2022-09-17T07:57:14.347Z,100.00
2022-09-17T07:59:42.578Z,100.00
2022-09-17T08:02:14.284Z,100.00
2022-09-17T08:04:44.043Z,100.00
2022-09-17T08:07:14.354Z,100.00
2022-09-17T08:09:43.269Z,100.00
2022-09-17T08:12:11.700Z,100.00
2022-09-17T08:14:42.000Z,100.00
2022-09-17T08:17:10.597Z,100.00
2022-09-17T08:19:39.184Z,100.00
2022-09-17T08:22:07.818Z,100.00
2022-09-17T08:24:36.400Z,100.00
2022-09-17T08:27:05.704Z,100.00
2022-09-17T08:29:35.345Z,100.00
2022-09-17T08:32:05.458Z,100.00
2022-09-17T08:34:34.193Z,100.00
2022-09-17T08:37:03.159Z,100.00
2022-09-17T08:39:31.489Z,100.00
2022-09-17T08:42:09.526Z,100.00
2022-09-17T08:44:41.653Z,100.00
2022-09-17T08:47:15.427Z,100.00
2022-09-17T08:49:49.938Z,100.00
2022-09-17T08:52:41.358Z,100.00
2022-09-17T08:55:21.105Z,100.00
2022-09-17T08:57:53.858Z,100.00
2022-09-17T09:00:22.984Z,100.00
2022-09-17T09:03:02.791Z,100.00
2022-09-17T09:05:33.816Z,100.00
2022-09-17T09:08:04.692Z,100.00
2022-09-17T09:10:38.039Z,100.00
2022-09-17T09:13:06.543Z,100.00
2022-09-17T09:15:39.112Z,100.00
2022-09-17T09:18:17.658Z,100.00
2022-09-17T09:20:51.762Z,100.00
2022-09-17T09:23:22.079Z,100.00
2022-09-17T09:25:56.369Z,100.00
2022-09-17T09:28:36.513Z,100.00
2022-09-17T09:31:12.837Z,100.00
2022-09-17T09:33:47.887Z,100.00
2022-09-17T09:36:21.815Z,100.00
2022-09-17T09:38:56.727Z,100.00
2022-09-17T09:41:30.175Z,100.00
2022-09-17T09:44:04.858Z,100.00
2022-09-17T09:46:49.488Z,100.00
2022-09-17T09:49:26.823Z,100.00
2022-09-17T09:52:04.781Z,100.00
2022-09-17T09:54:45.771Z,100.00
2022-09-17T09:57:15.721Z,100.00
2022-09-17T09:59:44.146Z,100.00
2022-09-17T10:02:13.278Z,100.00
2022-09-17T10:04:43.086Z,100.00
2022-09-17T10:07:12.470Z,100.00
2022-09-17T10:09:46.456Z,100.00
2022-09-17T10:12:19.139Z,100.00
2022-09-17T10:14:47.874Z,100.00
2022-09-17T10:17:19.413Z,100.00
2022-09-17T10:20:13.803Z,100.00
2022-09-17T10:22:44.286Z,100.00
2022-09-17T10:25:29.797Z,100.00
2022-09-17T10:27:58.916Z,100.00
2022-09-17T10:30:27.573Z,100.00
2022-09-17T10:33:18.507Z,100.00
2022-09-17T10:36:01.326Z,100.00
2022-09-17T10:38:34.844Z,100.00
2022-09-17T10:41:15.430Z,100.00
2022-09-17T10:43:44.044Z,100.00
2022-09-17T10:46:17.205Z,100.00
2022-09-17T10:48:48.312Z,100.00
2022-09-17T10:51:25.939Z,100.00
2022-09-17T10:54:24.186Z,100.00
2022-09-17T10:56:55.860Z,100.00
2022-09-17T10:59:44.037Z,100.00
2022-09-17T11:02:37.345Z,100.00
2022-09-17T11:05:17.632Z,100.00
2022-09-17T11:07:49.447Z,100.00
2022-09-17T11:10:23.529Z,100.00
2022-09-17T11:13:06.716Z,100.00
2022-09-17T11:15:44.082Z,100.00
2022-09-17T11:18:32.640Z,100.00
2022-09-17T11:21:15.324Z,100.00
2022-09-17T11:23:57.911Z,100.00
2022-09-17T11:26:32.456Z,100.00
2022-09-17T11:29:09.604Z,100.00
2022-09-17T11:31:42.193Z,100.00
2022-09-17T11:34:33.004Z,100.00
2022-09-17T11:37:06.268Z,100.00
2022-09-17T11:39:42.919Z,100.00
2022-09-17T11:42:15.988Z,100.00
2022-09-17T11:44:50.127Z,100.00
2022-09-17T11:47:21.990Z,100.00
2022-09-17T11:49:53.368Z,100.00
2022-09-17T11:52:24.225Z,100.00
2022-09-17T11:54:57.932Z,100.00
2022-09-17T11:57:29.025Z,100.00
2022-09-17T12:00:01.824Z,100.00
2022-09-17T12:02:47.623Z,100.00
2022-09-17T12:05:18.666Z,100.00
2022-09-17T12:07:51.467Z,100.00
2022-09-17T12:10:38.680Z,100.00
2022-09-17T12:13:15.973Z,100.00
2022-09-17T12:15:52.350Z,100.00
2022-09-17T12:18:32.570Z,100.00
2022-09-17T12:21:04.625Z,100.00
2022-09-17T12:23:38.844Z,100.00
2022-09-17T12:26:17.451Z,100.00
2022-09-17T12:28:52.381Z,100.00
2022-09-17T12:31:25.893Z,82.70
2022-09-17T12:33:56.935Z,87.18
2022-09-17T12:36:38.720Z,70.25
2022-09-17T12:39:45.938Z,80.80
2022-09-17T12:42:33.053Z,79.77
2022-09-17T12:45:15.653Z,88.00
2022-09-17T12:48:01.437Z,77.50
2022-09-17T12:50:38.820Z,73.18
2022-09-17T12:53:22.688Z,80.02
2022-09-17T12:56:04.045Z,76.03
2022-09-17T12:58:45.168Z,75.51
2022-09-17T13:01:20.898Z,70.52
2022-09-17T13:03:52.060Z,76.36
2022-09-17T13:06:45.948Z,70.16
2022-09-17T13:09:32.772Z,66.79
2022-09-17T13:12:28.685Z,71.55
2022-09-17T13:15:25.239Z,69.23
2022-09-17T13:18:12.954Z,69.98
2022-09-17T13:20:56.642Z,75.58
2022-09-17T13:23:34.258Z,84.80
2022-09-17T13:26:05.463Z,81.50
2022-09-17T13:28:46.729Z,76.95
2022-09-17T13:31:22.734Z,73.09
2022-09-17T13:33:59.116Z,77.60
2022-09-17T13:36:40.133Z,72.82
2022-09-17T13:39:10.865Z,72.00
2022-09-17T13:41:41.275Z,70.24
2022-09-17T13:44:12.618Z,71.43
2022-09-17T13:46:42.387Z,71.88
2022-09-17T13:49:15.835Z,76.77
2022-09-17T13:51:52.577Z,77.40
2022-09-17T13:54:22.833Z,76.17
2022-09-17T13:57:05.148Z,73.48
2022-09-17T13:59:36.259Z,64.36
2022-09-17T14:02:32.406Z,62.51
2022-09-17T14:05:40.273Z,67.63
2022-09-17T14:08:30.606Z,66.81
2022-09-17T14:11:03.919Z,71.45
2022-09-17T14:13:44.759Z,97.38
2022-09-17T14:16:47.237Z,94.84
2022-09-17T14:19:30.741Z,91.79
2022-09-17T14:22:01.785Z,95.65
2022-09-17T14:24:36.677Z,86.85
2022-09-17T14:27:14.698Z,93.92
2022-09-17T14:30:03.847Z,100.00
2022-09-17T14:32:37.641Z,100.00
2022-09-17T14:35:20.219Z,100.00
2022-09-17T14:37:54.709Z,100.00
2022-09-17T14:40:24.097Z,100.00
2022-09-17T14:42:55.804Z,86.86
2022-09-17T14:45:29.222Z,100.00
2022-09-17T14:48:28.554Z,91.65
2022-09-17T14:51:26.577Z,78.60
2022-09-17T14:54:17.563Z,79.80
2022-09-17T14:56:54.372Z,100.00
2022-09-17T14:59:27.886Z,76.22
2022-09-17T15:01:56.159Z,100.00
2022-09-17T15:04:26.257Z,96.13
2022-09-17T15:07:08.577Z,100.00
2022-09-17T15:09:36.937Z,100.00
2022-09-17T15:12:06.058Z,100.00
2022-09-17T15:14:36.170Z,100.00
2022-09-17T15:17:05.346Z,100.00
2022-09-17T15:19:36.254Z,100.00
2022-09-17T15:22:10.549Z,100.00
2022-09-17T15:24:42.170Z,100.00
2022-09-17T15:27:14.387Z,100.00
2022-09-17T15:29:45.669Z,100.00
2022-09-17T15:32:14.328Z,100.00
2022-09-17T15:34:42.996Z,100.00
2022-09-17T15:37:20.680Z,100.00
2022-09-17T15:39:51.550Z,100.00
2022-09-17T15:42:21.856Z,100.00
2022-09-17T15:44:50.114Z,100.00
2022-09-17T15:47:38.923Z,100.00
2022-09-17T15:50:18.961Z,100.00
2022-09-17T15:52:49.371Z,100.00
2022-09-17T15:55:36.411Z,100.00
2022-09-17T15:58:06.772Z,100.00
2022-09-17T16:00:35.335Z,100.00
2022-09-17T16:03:36.688Z,100.00
2022-09-17T16:06:05.046Z,100.00
2022-09-17T16:08:36.262Z,100.00
2022-09-17T16:11:04.421Z,100.00
2022-09-17T16:13:32.636Z,100.00
2022-09-17T16:16:00.974Z,100.00
2022-09-17T16:18:29.212Z,100.00
2022-09-17T16:20:57.326Z,100.00
2022-09-17T16:23:25.781Z,100.00
2022-09-17T16:25:55.359Z,100.00
2022-09-17T16:28:23.568Z,100.00
2022-09-17T16:30:51.775Z,100.00
2022-09-17T16:33:20.340Z,100.00
2022-09-17T16:35:48.567Z,100.00
2022-09-17T16:38:16.758Z,100.00
2022-09-17T16:40:47.224Z,100.00
2022-09-17T16:43:16.873Z,100.00
2022-09-17T16:45:45.359Z,100.00
2022-09-17T16:48:14.437Z,100.00
2022-09-17T16:50:43.104Z,100.00
2022-09-17T16:53:11.450Z,100.00
2022-09-17T16:55:40.034Z,100.00
2022-09-17T16:58:08.300Z,100.00
2022-09-17T17:00:38.191Z,100.00
2022-09-17T17:03:06.885Z,100.00
2022-09-17T17:05:37.956Z,100.00
2022-09-17T17:08:06.992Z,96.68
2022-09-17T17:10:35.493Z,97.73
2022-09-17T17:13:03.696Z,95.08
2022-09-17T17:15:31.999Z,90.04
2022-09-17T17:18:01.649Z,92.89
2022-09-17T17:20:32.053Z,92.98
2022-09-17T17:23:00.291Z,100.00
2022-09-17T17:25:28.678Z,100.00
2022-09-17T17:27:56.948Z,100.00
2022-09-17T17:30:25.522Z,100.00
2022-09-17T17:32:54.250Z,100.00
2022-09-17T17:35:24.887Z,100.00
2022-09-17T17:37:53.058Z,100.00
2022-09-17T17:40:21.334Z,100.00
2022-09-17T17:42:52.942Z,100.00
2022-09-17T17:45:21.247Z,100.00
2022-09-17T17:47:49.576Z,100.00
2022-09-17T17:50:17.970Z,100.00
2022-09-17T17:52:48.723Z,100.00
2022-09-17T17:55:17.309Z,100.00
2022-09-17T17:57:45.512Z,100.00
2022-09-17T18:00:14.884Z,100.00
2022-09-17T18:02:43.484Z,100.00
2022-09-17T18:05:12.353Z,100.00
2022-09-17T18:07:40.797Z,100.00
2022-09-17T18:10:11.141Z,100.00
2022-09-17T18:12:39.395Z,100.00
2022-09-17T18:15:08.684Z,100.00
2022-09-17T18:17:36.913Z,100.00
2022-09-17T18:20:06.214Z,100.00
2022-09-17T18:22:34.497Z,100.00
2022-09-17T18:25:02.695Z,100.00
2022-09-17T18:27:32.270Z,100.00
2022-09-17T18:30:00.738Z,100.00
2022-09-17T18:32:29.221Z,100.00
2022-09-17T18:34:57.448Z,100.00
2022-09-17T18:37:26.021Z,100.00
2022-09-17T18:39:59.116Z,100.00
2022-09-17T18:42:28.030Z,100.00
2022-09-17T18:44:57.582Z,100.00
2022-09-17T18:47:26.120Z,100.00
2022-09-17T18:49:54.691Z,100.00
2022-09-17T18:52:22.983Z,100.00
2022-09-17T18:54:51.347Z,100.00
2022-09-17T18:57:19.613Z,100.00
2022-09-17T18:59:47.850Z,100.00
2022-09-17T19:02:17.447Z,100.00
2022-09-17T19:04:45.823Z,100.00
2022-09-17T19:07:14.064Z,100.00
2022-09-17T19:09:42.242Z,100.00
2022-09-17T19:12:10.615Z,100.00
2022-09-17T19:14:38.758Z,100.00
2022-09-17T19:17:06.980Z,99.65
2022-09-17T19:19:36.502Z,98.98
2022-09-17T19:22:07.735Z,100.00
2022-09-17T19:24:36.186Z,97.76
2022-09-17T19:27:04.441Z,91.76
2022-09-17T19:29:32.643Z,89.61
2022-09-17T19:32:00.881Z,97.70
2022-09-17T19:34:29.180Z,100.00
2022-09-17T19:36:58.779Z,100.00
2022-09-17T19:39:26.983Z,100.00
2022-09-17T19:41:55.150Z,100.00
2022-09-17T19:44:23.939Z,100.00
2022-09-17T19:46:53.223Z,100.00
2022-09-17T19:49:22.421Z,100.00
2022-09-17T19:51:50.736Z,100.00
2022-09-17T19:54:20.326Z,100.00
2022-09-17T19:56:48.616Z,100.00
2022-09-17T19:59:17.287Z,100.00
2022-09-17T20:01:49.283Z,100.00
2022-09-17T20:04:18.157Z,100.00
2022-09-17T20:06:46.394Z,93.76
2022-09-17T20:09:14.508Z,92.09
2022-09-17T20:11:44.078Z,89.48
2022-09-17T20:14:12.891Z,88.23
2022-09-17T20:16:41.456Z,83.15
2022-09-17T20:19:15.383Z,83.35
2022-09-17T20:21:43.895Z,82.24
2022-09-17T20:24:12.495Z,84.87
2022-09-17T20:26:40.728Z,84.23
2022-09-17T20:29:10.873Z,82.98
2022-09-17T20:31:39.744Z,81.58
2022-09-17T20:34:08.015Z,80.84
2022-09-17T20:36:36.962Z,83.27
2022-09-17T20:39:18.207Z,90.01
2022-09-17T20:41:50.455Z,91.05
2022-09-17T20:44:20.818Z,90.29
2022-09-17T20:46:49.220Z,91.17
2022-09-17T20:49:17.529Z,97.78
2022-09-17T20:51:45.694Z,95.29
2022-09-17T20:54:14.236Z,95.37
2022-09-17T20:56:42.409Z,96.95
2022-09-17T20:59:15.303Z,100.00
2022-09-17T21:01:46.731Z,100.00
2022-09-17T21:04:16.519Z,100.00
2022-09-17T21:06:45.388Z,100.00
2022-09-17T21:09:16.927Z,100.00
2022-09-17T21:11:46.280Z,100.00
2022-09-17T21:14:15.800Z,100.00
2022-09-17T21:16:46.675Z,100.00
2022-09-17T21:19:16.346Z,100.00
2022-09-17T21:21:44.740Z,100.00
2022-09-17T21:24:13.237Z,100.00
2022-09-17T21:26:41.570Z,100.00
2022-09-17T21:29:09.792Z,100.00
2022-09-17T21:31:38.387Z,98.15
2022-09-17T21:34:09.303Z,94.07
2022-09-17T21:36:38.488Z,94.60
2022-09-17T21:39:08.324Z,92.73
2022-09-17T21:41:40.088Z,96.98
2022-09-17T21:44:11.286Z,96.05
2022-09-17T21:46:39.678Z,96.01
2022-09-17T21:49:09.480Z,100.00
2022-09-17T21:51:38.794Z,100.00
2022-09-17T21:54:08.571Z,100.00
2022-09-17T21:56:37.316Z,100.00
2022-09-17T21:59:08.766Z,100.00
2022-09-17T22:01:39.728Z,100.00
2022-09-17T22:04:10.965Z,100.00
2022-09-17T22:06:39.600Z,100.00
2022-09-17T22:09:12.210Z,100.00
2022-09-17T22:11:40.477Z,100.00
2022-09-17T22:14:12.847Z,100.00
2022-09-17T22:16:43.978Z,100.00
2022-09-17T22:19:15.126Z,100.00
2022-09-17T22:21:46.708Z,100.00
2022-09-17T22:24:16.063Z,100.00
2022-09-17T22:26:45.880Z,100.00
2022-09-17T22:29:15.742Z,100.00
2022-09-17T22:31:44.328Z,100.00
2022-09-17T22:34:15.336Z,100.00
2022-09-17T22:36:43.636Z,100.00
2022-09-17T22:39:12.192Z,100.00
2022-09-17T22:41:45.247Z,100.00
2022-09-17T22:44:15.200Z,100.00
2022-09-17T22:46:43.898Z,100.00
2022-09-17T22:49:13.673Z,100.00
2022-09-17T22:51:42.128Z,100.00
2022-09-17T22:54:12.686Z,100.00
2022-09-17T22:56:42.001Z,100.00
2022-09-17T22:59:10.520Z,100.00
2022-09-17T23:01:40.541Z,100.00
2022-09-17T23:04:08.800Z,100.00
2022-09-17T23:06:42.176Z,100.00
2022-09-17T23:09:10.758Z,100.00
2022-09-17T23:11:40.090Z,100.00
2022-09-17T23:14:12.099Z,100.00
2022-09-17T23:16:42.614Z,100.00
2022-09-17T23:19:11.541Z,100.00
2022-09-17T23:21:41.370Z,100.00
2022-09-17T23:24:11.532Z,100.00
2022-09-17T23:26:39.836Z,100.00
2022-09-17T23:29:08.191Z,100.00
2022-09-17T23:31:36.414Z,100.00
2022-09-17T23:34:05.552Z,100.00
2022-09-17T23:36:36.835Z,100.00
2022-09-17T23:39:07.597Z,100.00
2022-09-17T23:41:37.767Z,100.00
2022-09-17T23:44:14.503Z,100.00
2022-09-17T23:46:44.347Z,100.00
2022-09-17T23:49:14.403Z,100.00
2022-09-17T23:51:42.985Z,100.00
2022-09-17T23:54:12.602Z,100.00
2022-09-17T23:56:40.754Z,100.00
2022-09-17T23:59:08.962Z,100.00
